• Join FlightAware (Why Join?)
  • Login
  • US Flag 
07:10AM EDT


 

Airport Tracker/Info


-or-


 

Live Flight TrackerFlight Track Log ✈ EJA831 ✈ 11-Dec-2013 ✈ KSMO - KLAS

Flight Track Log - Related Links

Times and Time Zones

All times are in EST time to prevent confusion due to time zone crossing. See the EJA831 flight status page for this flight to view local times or setup timezone preferences in your user account.

Time Position Orientation Groundspeed Altitude Reporting Facility
EST Latitude Longitude Course Direction KTS MPH feet Rate Location/Type
10:50AM 34.0000 -118.5167 76° East 198 228 3,000  Level Southern California TRACON
10:51AM 33.9972 -118.5550 265° West 230 265 4,600 2,520 Climbing Los Angeles Center
10:52AM 34.0222 -118.6261 293° West 259 298 7,000 1,140 Climbing Los Angeles Center
10:53AM 34.0900 -118.6008 17° North 262 302 7,000 420 Level Los Angeles Center
10:54AM 34.1481 -118.5483 37° Northeast 261 300 7,900 2,460 Climbing Los Angeles Center
10:55AM 34.2086 -118.4894 39° Northeast 276 318 12,100 3,900 Climbing Los Angeles Center
10:56AM 34.3339 -117.9627 76° East  Level Estimated
10:56AM 34.2803 -118.4339 33° Northeast 301 346 15,900  Level Los Angeles Center
10:57AM 34.3633 -118.3886 24° Northeast 323 372 18,900 3,000 Climbing Los Angeles Center
10:58AM 34.4642 -118.3289 26° Northeast 334 384 22,800 3,120 Climbing Los Angeles Center
10:59AM 34.5200 -118.2111 60° Northeast 343 395 26,100 1,980 Climbing Los Angeles Center
11:00AM 34.5492 -118.1089 71° East 353 406 27,000 420 Climbing Los Angeles Center
11:01AM 34.5897 -117.9592 72° East 389 448 27,000  Level Los Angeles Center
11:02AM 34.6231 -117.8356 72° East 389 448 27,000  Level Los Angeles Center
11:03AM 34.6575 -117.7119 71° East 390 449 27,000  Level Los Angeles Center
11:04AM 34.6914 -117.5881 72° East 389 448 27,000  Level Los Angeles Center
11:05AM 34.7247 -117.4636 72° East 391 450 27,000  Level Los Angeles Center
11:06AM 34.7519 -117.3647 71° East 391 450 27,000  Level Los Angeles Center
11:08AM 34.8058 -117.1650 72° East 392 451 27,000  Level Los Angeles Center
11:09AM 34.8481 -117.0464 67° East 383 441 27,000  Level Los Angeles Center
11:10AM 34.8858 -116.9500 64° Northeast 394 453 27,000  Level Los Angeles Center
11:11AM 34.9425 -116.8100 64° Northeast 387 445 27,000  Level Los Angeles Center
11:12AM 34.9886 -116.6889 65° Northeast 393 452 27,000 -300 Level Los Angeles Center
11:13AM 35.0469 -116.5433 64° Northeast 399 459 26,400 -1,260 Descending Los Angeles Center
11:14AM 35.0922 -116.4269 65° Northeast 388 447 24,400 -1,200 Descending Los Angeles Center
11:15AM 35.1614 -116.3267 50° Northeast 391 450 24,000 -600 Descending Los Angeles Center
11:16AM 35.2378 -116.2331 45° Northeast 391 450 23,200 -1,260 Descending Los Angeles Center
11:17AM 35.3086 -116.1414 47° Northeast 379 436 21,500 -1,800 Descending Los Angeles Center
11:18AM 35.3947 -116.0328 46° Northeast 373 429 19,500 -1,860 Descending Los Angeles Center
11:19AM 35.4681 -115.9419 45° Northeast 374 430 17,700 -1,500 Descending Los Angeles Center
11:20AM 35.5394 -115.8489 47° Northeast 371 427 16,400 -1,500 Descending Los Angeles Center
11:21AM 35.6008 -115.7783 43° Northeast 357 411 14,900 -1,680 Descending Los Angeles Center
11:21AM 35.6069 -115.7631 64° Northeast 360 414 14,700 -1,680 Descending Los Angeles Center
11:22AM 35.6614 -115.6981 44° Northeast 347 399 13,400 -1,560 Descending Los Angeles Center
11:22AM 35.6742 -115.6800 49° Northeast 352 405 13,100 -420 Descending Los Angeles Center
11:23AM 35.7189 -115.6242 45° Northeast 295 339 13,000 -120 Descending Los Angeles Center
11:23AM 35.7411 -115.5964 45° Northeast 304 350 13,000  Level Los Angeles Center
11:24AM 35.7883 -115.5753 20° North 303 349 13,000  Level Los Angeles Center
11:24AM 35.8206 -115.5717 North 301 346 13,000  Level Los Angeles Center
11:25AM 35.8778 -115.5703 North 301 346 13,000  Level Los Angeles Center
11:25AM 35.9111 -115.5664 North 304 350 13,000  Level Los Angeles Center
11:26AM 35.9497 -115.5628 North 306 352 13,000 -300 Level Los Angeles Center
11:26AM 35.9822 -115.5267 42° Northeast 294 338 12,700 -840 Descending Los Angeles Center
11:27AM 35.9983 -115.4781 68° East 297 342 12,200 -1,020 Descending Los Angeles Center
11:27AM 36.0117 -115.4358 69° East 284 327 11,700 -900 Descending Los Angeles Center
11:28AM 36.0253 -115.3922 69° East 271 312 11,300 -1,020 Descending Los Angeles Center
11:28AM 36.0278 -115.3417 86° East 268 308 10,700 -1,080 Descending Los Angeles Center
11:29AM 36.0242 -115.2969 96° East 259 298 10,100 -840 Descending Los Angeles Center
11:30AM 36.0222 -115.2550 93° East 258 297 9,700 -1,020 Descending Los Angeles Center
11:30AM 36.0183 -115.2111 96° East 255 293 9,100 -1,080 Descending Los Angeles Center
11:31AM 36.0147 -115.1447 94° East 249 287 8,600 -780 Descending Los Angeles Center
11:31AM 36.0133 -115.1278 96° East 231 266 8,400 -600 Descending Los Angeles Center
11:32AM 36.0097 -115.0750 95° East 209 241 8,000 -420 Descending Los Angeles Center
11:32AM 36.0097 -115.0625 90° East 188 216 8,000 -900 Level Los Angeles Center
11:33AM 36.0450 -115.0397 28° Northeast 177 204 7,100 -1,200 Descending Los Angeles Center
11:33AM 36.0542 -115.0372 12° North 181 208 6,800 -1,080 Descending Los Angeles Center
11:34AM 36.0886 -115.0203 22° Northeast 167 192 6,000 -1,140 Descending Los Angeles Center
11:34AM 36.0953 -115.0181 15° North 164 189 5,700 -900 Descending Los Angeles Center
11:35AM 36.1172 -115.0553 306° West 177 204 5,100 -780 Descending Los Angeles Center
11:35AM 36.1192 -115.0581 311° West 177 204 5,000 -1,440 Descending Los Angeles Center
11:36AM 36.1278 -115.1086 282° West 165 190 3,800 -1,440 Descending Los Angeles Center
11:36AM 36.1303 -115.1158 293° West 171 197 3,600 -1,200 Descending Los Angeles Center
11:37AM 36.1189 -115.1461 245° Southwest 117 135 2,600 -1,080 Descending Los Angeles Center
11:37AM 36.1156 -115.1469 191° South 121 139 2,500 -900 Descending Los Angeles Center
11:39AM 36.0801 -115.1523 270° West  Level Estimated
11:46AM 36.0801 -115.1523 270° West  Level Estimated